sensor_id;sensor_type;location;lat;lon;timestamp;pressure;altitude;pressure_sealevel;temperature;humidity
49342;BME280;35210;41.606;-87.602;2022-07-29T00:00:27;99199.34;;;29.33;44.06
49342;BME280;35210;41.606;-87.602;2022-07-29T00:02:55;99207.75;;;29.32;44.46
49342;BME280;35210;41.606;-87.602;2022-07-29T00:05:23;99213.50;;;29.35;44.74
49342;BME280;35210;41.606;-87.602;2022-07-29T00:07:52;99217.78;;;29.31;44.77
49342;BME280;35210;41.606;-87.602;2022-07-29T00:10:20;99212.84;;;29.28;44.29
49342;BME280;35210;41.606;-87.602;2022-07-29T00:12:48;99213.00;;;29.22;44.46
49342;BME280;35210;41.606;-87.602;2022-07-29T00:15:16;99215.47;;;29.23;44.86
49342;BME280;35210;41.606;-87.602;2022-07-29T00:17:44;99226.81;;;29.20;45.59
49342;BME280;35210;41.606;-87.602;2022-07-29T00:20:12;99216.94;;;29.14;45.47
49342;BME280;35210;41.606;-87.602;2022-07-29T00:22:59;99217.41;;;29.11;45.36
49342;BME280;35210;41.606;-87.602;2022-07-29T00:25:29;99221.44;;;29.08;45.28
49342;BME280;35210;41.606;-87.602;2022-07-29T00:27:58;99219.22;;;29.05;45.24
49342;BME280;35210;41.606;-87.602;2022-07-29T00:30:26;99227.59;;;29.04;45.82
49342;BME280;35210;41.606;-87.602;2022-07-29T00:32:55;99222.31;;;28.97;46.04
49342;BME280;35210;41.606;-87.602;2022-07-29T00:35:23;99222.00;;;28.94;46.77
49342;BME280;35210;41.606;-87.602;2022-07-29T00:38:10;99214.81;;;28.88;46.99
49342;BME280;35210;41.606;-87.602;2022-07-29T00:40:38;99220.84;;;28.90;46.64
49342;BME280;35210;41.606;-87.602;2022-07-29T00:43:07;99225.59;;;28.83;46.35
49342;BME280;35210;41.606;-87.602;2022-07-29T00:45:36;99221.66;;;28.78;46.28
49342;BME280;35210;41.606;-87.602;2022-07-29T00:48:05;99229.59;;;28.80;46.45
49342;BME280;35210;41.606;-87.602;2022-07-29T00:50:35;99234.09;;;28.74;46.12
49342;BME280;35210;41.606;-87.602;2022-07-29T00:53:06;99231.25;;;28.69;45.98
49342;BME280;35210;41.606;-87.602;2022-07-29T00:55:35;99243.69;;;28.65;45.13
49342;BME280;35210;41.606;-87.602;2022-07-29T00:58:05;99236.97;;;28.56;44.96
49342;BME280;35210;41.606;-87.602;2022-07-29T01:00:34;99244.75;;;28.53;45.03
49342;BME280;35210;41.606;-87.602;2022-07-29T01:03:02;99247.47;;;28.53;44.80
49342;BME280;35210;41.606;-87.602;2022-07-29T01:05:31;99249.84;;;28.49;44.93
49342;BME280;35210;41.606;-87.602;2022-07-29T01:08:00;99252.56;;;28.49;44.61
49342;BME280;35210;41.606;-87.602;2022-07-29T01:10:28;99252.44;;;28.44;44.74
49342;BME280;35210;41.606;-87.602;2022-07-29T01:13:01;99254.81;;;28.40;44.45
49342;BME280;35210;41.606;-87.602;2022-07-29T01:15:30;99264.38;;;28.43;44.38
49342;BME280;35210;41.606;-87.602;2022-07-29T01:18:03;99254.47;;;28.37;44.39
49342;BME280;35210;41.606;-87.602;2022-07-29T01:23:52;99260.38;;;28.34;44.77
49342;BME280;35210;41.606;-87.602;2022-07-29T01:26:33;99255.88;;;28.28;44.86
49342;BME280;35210;41.606;-87.602;2022-07-29T01:29:06;99257.19;;;28.25;45.26
49342;BME280;35210;41.606;-87.602;2022-07-29T01:31:42;99255.53;;;28.24;45.44
49342;BME280;35210;41.606;-87.602;2022-07-29T01:34:17;99255.19;;;28.21;46.23
49342;BME280;35210;41.606;-87.602;2022-07-29T01:36:53;99255.78;;;28.23;46.11
49342;BME280;35210;41.606;-87.602;2022-07-29T01:39:27;99258.03;;;28.14;46.47
49342;BME280;35210;41.606;-87.602;2022-07-29T01:41:59;99258.03;;;28.14;46.27
49342;BME280;35210;41.606;-87.602;2022-07-29T01:44:35;99271.13;;;28.05;45.99
49342;BME280;35210;41.606;-87.602;2022-07-29T01:47:12;99279.97;;;28.01;46.32
49342;BME280;35210;41.606;-87.602;2022-07-29T01:49:48;99280.31;;;27.93;46.15
49342;BME280;35210;41.606;-87.602;2022-07-29T01:52:21;99282.66;;;27.89;46.41
49342;BME280;35210;41.606;-87.602;2022-07-29T01:54:55;99281.00;;;27.88;46.31
49342;BME280;35210;41.606;-87.602;2022-07-29T01:57:27;99291.72;;;27.83;46.62
49342;BME280;35210;41.606;-87.602;2022-07-29T01:59:59;99291.72;;;27.83;46.55
49342;BME280;35210;41.606;-87.602;2022-07-29T02:02:30;99299.16;;;27.76;46.59
49342;BME280;35210;41.606;-87.602;2022-07-29T02:05:02;99306.91;;;27.72;46.75
49342;BME280;35210;41.606;-87.602;2022-07-29T02:07:32;99308.81;;;27.72;46.71
49342;BME280;35210;41.606;-87.602;2022-07-29T02:10:02;99314.09;;;27.67;46.24
49342;BME280;35210;41.606;-87.602;2022-07-29T02:12:32;99310.19;;;27.63;46.55
49342;BME280;35210;41.606;-87.602;2022-07-29T02:15:04;99316.28;;;27.58;46.29
49342;BME280;35210;41.606;-87.602;2022-07-29T02:17:41;99316.50;;;27.57;46.18
49342;BME280;35210;41.606;-87.602;2022-07-29T02:20:10;99316.38;;;27.52;46.10
49342;BME280;35210;41.606;-87.602;2022-07-29T02:22:39;99325.56;;;27.50;46.61
49342;BME280;35210;41.606;-87.602;2022-07-29T02:25:09;99339.03;;;27.45;46.67
49342;BME280;35210;41.606;-87.602;2022-07-29T02:27:40;99333.22;;;27.42;46.80
49342;BME280;35210;41.606;-87.602;2022-07-29T02:30:12;99336.63;;;27.37;47.18
49342;BME280;35210;41.606;-87.602;2022-07-29T02:32:41;99338.50;;;27.37;47.22
49342;BME280;35210;41.606;-87.602;2022-07-29T02:35:13;99345.44;;;27.33;47.55
49342;BME280;35210;41.606;-87.602;2022-07-29T02:37:44;99342.38;;;27.29;47.89
49342;BME280;35210;41.606;-87.602;2022-07-29T02:40:34;99345.53;;;27.26;47.72
49342;BME280;35210;41.606;-87.602;2022-07-29T02:43:06;99348.94;;;27.22;48.52
49342;BME280;35210;41.606;-87.602;2022-07-29T02:45:38;99348.56;;;27.18;48.51
49342;BME280;35210;41.606;-87.602;2022-07-29T02:48:13;99353.59;;;27.14;48.77
49342;BME280;35210;41.606;-87.602;2022-07-29T02:50:46;99360.31;;;27.12;49.33
49342;BME280;35210;41.606;-87.602;2022-07-29T02:53:19;99357.44;;;27.07;49.36
49342;BME280;35210;41.606;-87.602;2022-07-29T02:55:56;99361.06;;;27.19;49.24
49342;BME280;35210;41.606;-87.602;2022-07-29T02:58:28;99358.56;;;27.17;49.29
49342;BME280;35210;41.606;-87.602;2022-07-29T03:01:02;99368.06;;;27.08;49.86
49342;BME280;35210;41.606;-87.602;2022-07-29T03:03:35;99375.47;;;26.95;50.48
49342;BME280;35210;41.606;-87.602;2022-07-29T03:06:05;99376.38;;;26.89;50.88
49342;BME280;35210;41.606;-87.602;2022-07-29T03:08:34;99362.44;;;26.85;50.70
49342;BME280;35210;41.606;-87.602;2022-07-29T03:11:03;99361.47;;;26.79;50.94
49342;BME280;35210;41.606;-87.602;2022-07-29T03:13:32;99359.81;;;26.78;51.13
49342;BME280;35210;41.606;-87.602;2022-07-29T03:16:06;99358.38;;;26.76;51.50
49342;BME280;35210;41.606;-87.602;2022-07-29T03:18:36;99359.53;;;26.68;51.93
49342;BME280;35210;41.606;-87.602;2022-07-29T03:21:05;99344.56;;;26.66;52.11
49342;BME280;35210;41.606;-87.602;2022-07-29T03:23:33;99342.28;;;26.63;52.13
49342;BME280;35210;41.606;-87.602;2022-07-29T03:26:01;99339.59;;;26.63;51.80
49342;BME280;35210;41.606;-87.602;2022-07-29T03:28:29;99345.91;;;26.57;52.23
49342;BME280;35210;41.606;-87.602;2022-07-29T03:30:57;99343.03;;;26.51;52.58
49342;BME280;35210;41.606;-87.602;2022-07-29T03:33:27;99350.16;;;26.46;52.65
49342;BME280;35210;41.606;-87.602;2022-07-29T03:35:56;99357.06;;;26.42;53.16
49342;BME280;35210;41.606;-87.602;2022-07-29T03:38:30;99363.38;;;26.36;53.50
49342;BME280;35210;41.606;-87.602;2022-07-29T03:41:05;99354.03;;;26.32;53.34
49342;BME280;35210;41.606;-87.602;2022-07-29T03:43:36;99367.16;;;26.28;53.56
49342;BME280;35210;41.606;-87.602;2022-07-29T03:46:07;99365.94;;;26.24;53.43
49342;BME280;35210;41.606;-87.602;2022-07-29T03:48:42;99366.59;;;26.19;53.43
49342;BME280;35210;41.606;-87.602;2022-07-29T03:51:14;99373.72;;;26.14;53.79
49342;BME280;35210;41.606;-87.602;2022-07-29T03:53:42;99372.28;;;26.11;53.76
49342;BME280;35210;41.606;-87.602;2022-07-29T03:56:12;99371.69;;;26.09;53.96
49342;BME280;35210;41.606;-87.602;2022-07-29T03:58:44;99375.88;;;26.05;54.06
49342;BME280;35210;41.606;-87.602;2022-07-29T04:01:13;99366.31;;;26.03;54.45
49342;BME280;35210;41.606;-87.602;2022-07-29T04:03:45;99374.06;;;25.99;54.49
49342;BME280;35210;41.606;-87.602;2022-07-29T04:06:13;99377.22;;;25.96;54.42
49342;BME280;35210;41.606;-87.602;2022-07-29T04:08:42;99376.00;;;25.92;54.43
49342;BME280;35210;41.606;-87.602;2022-07-29T04:11:11;99388.06;;;25.90;54.30
49342;BME280;35210;41.606;-87.602;2022-07-29T04:13:39;99385.19;;;25.84;54.48
49342;BME280;35210;41.606;-87.602;2022-07-29T04:16:07;99390.97;;;26.19;53.91
49342;BME280;35210;41.606;-87.602;2022-07-29T04:18:35;99392.34;;;26.29;53.48
49342;BME280;35210;41.606;-87.602;2022-07-29T04:21:04;99391.13;;;26.25;53.50
49342;BME280;35210;41.606;-87.602;2022-07-29T04:23:32;99386.59;;;26.18;53.72
49342;BME280;35210;41.606;-87.602;2022-07-29T04:26:00;99393.72;;;26.13;53.95
49342;BME280;35210;41.606;-87.602;2022-07-29T04:28:28;99397.06;;;26.08;54.08
49342;BME280;35210;41.606;-87.602;2022-07-29T04:30:56;99400.22;;;26.05;54.37
49342;BME280;35210;41.606;-87.602;2022-07-29T04:33:24;99399.25;;;26.00;54.53
49342;BME280;35210;41.606;-87.602;2022-07-29T04:35:52;99402.19;;;25.98;54.30
49342;BME280;35210;41.606;-87.602;2022-07-29T04:38:22;99412.81;;;25.93;54.72
49342;BME280;35210;41.606;-87.602;2022-07-29T04:40:50;99411.59;;;25.89;54.87
49342;BME280;35210;41.606;-87.602;2022-07-29T04:43:18;99408.88;;;25.89;54.68
49342;BME280;35210;41.606;-87.602;2022-07-29T04:45:46;99403.09;;;25.85;54.90
49342;BME280;35210;41.606;-87.602;2022-07-29T04:48:14;99402.69;;;25.82;55.03
49342;BME280;35210;41.606;-87.602;2022-07-29T04:50:42;99399.59;;;25.78;55.22
49342;BME280;35210;41.606;-87.602;2022-07-29T04:53:10;99398.16;;;25.76;55.26
49342;BME280;35210;41.606;-87.602;2022-07-29T04:55:40;99402.75;;;25.69;55.45
49342;BME280;35210;41.606;-87.602;2022-07-29T04:58:10;99393.59;;;25.63;55.82
49342;BME280;35210;41.606;-87.602;2022-07-29T05:00:39;99399.44;;;25.60;56.24
49342;BME280;35210;41.606;-87.602;2022-07-29T05:03:07;99396.56;;;25.55;56.34
49342;BME280;35210;41.606;-87.602;2022-07-29T05:05:35;99397.38;;;25.55;56.34
49342;BME280;35210;41.606;-87.602;2022-07-29T05:08:04;99400.75;;;25.51;56.54
49342;BME280;35210;41.606;-87.602;2022-07-29T05:10:32;99395.16;;;25.39;56.66
49342;BME280;35210;41.606;-87.602;2022-07-29T05:13:06;99390.19;;;25.36;56.98
49342;BME280;35210;41.606;-87.602;2022-07-29T05:15:34;99385.03;;;25.28;57.15
49342;BME280;35210;41.606;-87.602;2022-07-29T05:18:04;99390.28;;;25.23;57.56
49342;BME280;35210;41.606;-87.602;2022-07-29T05:20:33;99400.91;;;25.18;57.82
49342;BME280;35210;41.606;-87.602;2022-07-29T05:23:02;99395.91;;;25.15;57.97
49342;BME280;35210;41.606;-87.602;2022-07-29T05:25:30;99397.16;;;25.12;58.29
49342;BME280;35210;41.606;-87.602;2022-07-29T05:27:59;99395.09;;;25.08;58.43
49342;BME280;35210;41.606;-87.602;2022-07-29T05:30:29;99399.28;;;25.04;58.87
49342;BME280;35210;41.606;-87.602;2022-07-29T05:32:57;99403.44;;;25.00;59.03
49342;BME280;35210;41.606;-87.602;2022-07-29T05:35:25;99394.94;;;24.96;59.00
49342;BME280;35210;41.606;-87.602;2022-07-29T05:37:54;99400.72;;;24.93;59.07
49342;BME280;35210;41.606;-87.602;2022-07-29T05:40:22;99405.94;;;24.88;59.02
49342;BME280;35210;41.606;-87.602;2022-07-29T05:42:50;99408.44;;;24.83;59.35
49342;BME280;35210;41.606;-87.602;2022-07-29T05:45:19;99398.88;;;24.80;59.52
49342;BME280;35210;41.606;-87.602;2022-07-29T05:47:50;99401.16;;;24.77;59.51
49342;BME280;35210;41.606;-87.602;2022-07-29T05:50:19;99403.25;;;24.75;59.26
49342;BME280;35210;41.606;-87.602;2022-07-29T05:52:47;99404.72;;;24.71;59.78
49342;BME280;35210;41.606;-87.602;2022-07-29T05:55:15;99404.72;;;24.71;59.79
49342;BME280;35210;41.606;-87.602;2022-07-29T05:57:44;99405.53;;;24.98;59.10
49342;BME280;35210;41.606;-87.602;2022-07-29T06:00:12;99407.59;;;25.02;59.13
49342;BME280;35210;41.606;-87.602;2022-07-29T06:02:41;99398.47;;;24.97;59.63
49342;BME280;35210;41.606;-87.602;2022-07-29T06:05:15;99398.88;;;24.87;60.21
49342;BME280;35210;41.606;-87.602;2022-07-29T06:07:43;99398.47;;;24.77;60.63
49342;BME280;35210;41.606;-87.602;2022-07-29T06:10:12;99395.16;;;24.68;61.11
49342;BME280;35210;41.606;-87.602;2022-07-29T06:12:40;99390.19;;;24.58;61.60
49342;BME280;35210;41.606;-87.602;2022-07-29T06:15:09;99391.47;;;24.43;62.29
49342;BME280;35210;41.606;-87.602;2022-07-29T06:17:38;99400.19;;;24.38;62.75
49342;BME280;35210;41.606;-87.602;2022-07-29T06:20:07;99389.41;;;24.32;62.91
49342;BME280;35210;41.606;-87.602;2022-07-29T06:22:37;99383.38;;;24.30;63.07
49342;BME280;35210;41.606;-87.602;2022-07-29T06:25:07;99384.41;;;24.29;62.74
49342;BME280;35210;41.606;-87.602;2022-07-29T06:27:35;99384.81;;;24.26;63.03
49342;BME280;35210;41.606;-87.602;2022-07-29T06:30:04;99383.56;;;24.21;62.93
49342;BME280;35210;41.606;-87.602;2022-07-29T06:32:33;99381.69;;;24.22;62.62
49342;BME280;35210;41.606;-87.602;2022-07-29T06:35:03;99387.69;;;24.17;62.85
49342;BME280;35210;41.606;-87.602;2022-07-29T06:37:31;99384.38;;;24.15;63.22
49342;BME280;35210;41.606;-87.602;2022-07-29T06:40:00;99383.53;;;24.15;62.97
49342;BME280;35210;41.606;-87.602;2022-07-29T06:42:46;99384.38;;;24.22;62.61
49342;BME280;35210;41.606;-87.602;2022-07-29T06:45:15;99396.00;;;24.09;63.38
49342;BME280;35210;41.606;-87.602;2022-07-29T06:47:44;99388.09;;;24.01;63.60
49342;BME280;35210;41.606;-87.602;2022-07-29T06:50:12;99389.34;;;23.99;63.58
49342;BME280;35210;41.606;-87.602;2022-07-29T06:52:41;99395.97;;;23.96;63.92
49342;BME280;35210;41.606;-87.602;2022-07-29T06:55:10;99394.09;;;23.97;63.79
49342;BME280;35210;41.606;-87.602;2022-07-29T06:57:38;99396.38;;;23.93;64.00
49342;BME280;35210;41.606;-87.602;2022-07-29T07:00:08;99402.38;;;23.88;64.29
49342;BME280;35210;41.606;-87.602;2022-07-29T07:02:36;99409.84;;;23.86;64.58
49342;BME280;35210;41.606;-87.602;2022-07-29T07:05:05;99408.38;;;23.84;64.86
49342;BME280;35210;41.606;-87.602;2022-07-29T07:07:35;99412.31;;;23.81;65.27
49342;BME280;35210;41.606;-87.602;2022-07-29T07:10:04;99419.16;;;23.77;65.42
49342;BME280;35210;41.606;-87.602;2022-07-29T07:12:34;99413.38;;;23.74;65.81
49342;BME280;35210;41.606;-87.602;2022-07-29T07:15:03;99417.50;;;23.70;65.95
49342;BME280;35210;41.606;-87.602;2022-07-29T07:17:31;99410.84;;;23.66;66.15
49342;BME280;35210;41.606;-87.602;2022-07-29T07:19:59;99411.34;;;24.02;64.65
49342;BME280;35210;41.606;-87.602;2022-07-29T07:22:28;99413.59;;;23.99;65.32
49342;BME280;35210;41.606;-87.602;2022-07-29T07:24:57;99407.56;;;23.90;65.55
49342;BME280;35210;41.606;-87.602;2022-07-29T07:27:25;99419.59;;;23.81;66.27
49342;BME280;35210;41.606;-87.602;2022-07-29T07:29:56;99422.06;;;23.69;66.65
49342;BME280;35210;41.606;-87.602;2022-07-29T07:32:24;99424.09;;;23.54;67.46
49342;BME280;35210;41.606;-87.602;2022-07-29T07:34:52;99420.31;;;23.48;67.75
49342;BME280;35210;41.606;-87.602;2022-07-29T07:37:20;99413.66;;;23.44;68.01
49342;BME280;35210;41.606;-87.602;2022-07-29T07:39:48;99415.03;;;23.81;66.70
49342;BME280;35210;41.606;-87.602;2022-07-29T07:42:16;99417.09;;;23.79;66.33
49342;BME280;35210;41.606;-87.602;2022-07-29T07:44:44;99415.44;;;23.72;66.65
49342;BME280;35210;41.606;-87.602;2022-07-29T07:47:16;99417.06;;;23.59;67.23
49342;BME280;35210;41.606;-87.602;2022-07-29T07:49:45;99423.56;;;23.37;68.03
49342;BME280;35210;41.606;-87.602;2022-07-29T07:52:14;99424.16;;;23.33;68.46
49342;BME280;35210;41.606;-87.602;2022-07-29T07:54:43;99425.59;;;23.28;68.76
49342;BME280;35210;41.606;-87.602;2022-07-29T07:57:11;99425.16;;;23.25;68.78
49342;BME280;35210;41.606;-87.602;2022-07-29T07:59:39;99431.78;;;23.22;68.64
49342;BME280;35210;41.606;-87.602;2022-07-29T08:02:08;99429.69;;;23.18;68.81
49342;BME280;35210;41.606;-87.602;2022-07-29T08:04:38;99427.19;;;23.16;68.86
49342;BME280;35210;41.606;-87.602;2022-07-29T08:07:07;99437.97;;;23.16;69.05
49342;BME280;35210;41.606;-87.602;2022-07-29T08:09:36;99431.13;;;23.14;68.50
49342;BME280;35210;41.606;-87.602;2022-07-29T08:12:04;99428.81;;;23.11;68.80
49342;BME280;35210;41.606;-87.602;2022-07-29T08:14:33;99421.34;;;23.06;69.10
49342;BME280;35210;41.606;-87.602;2022-07-29T08:17:01;99423.41;;;23.04;69.52
49342;BME280;35210;41.606;-87.602;2022-07-29T08:19:29;99424.03;;;23.00;69.93
49342;BME280;35210;41.606;-87.602;2022-07-29T08:21:59;99421.31;;;23.00;69.87
49342;BME280;35210;41.606;-87.602;2022-07-29T08:24:27;99424.41;;;22.97;69.85
49342;BME280;35210;41.606;-87.602;2022-07-29T08:27:10;99433.09;;;23.33;68.60
49342;BME280;35210;41.606;-87.602;2022-07-29T08:29:38;99430.59;;;23.32;68.72
49342;BME280;35210;41.606;-87.602;2022-07-29T08:32:07;99427.66;;;23.26;68.89
49342;BME280;35210;41.606;-87.602;2022-07-29T08:34:35;99434.25;;;23.17;69.27
49342;BME280;35210;41.606;-87.602;2022-07-29T08:37:05;99432.53;;;23.10;69.35
49342;BME280;35210;41.606;-87.602;2022-07-29T08:39:33;99428.38;;;23.01;69.74
49342;BME280;35210;41.606;-87.602;2022-07-29T08:42:02;99437.88;;;22.97;69.72
49342;BME280;35210;41.606;-87.602;2022-07-29T08:44:31;99433.16;;;22.77;70.61
49342;BME280;35210;41.606;-87.602;2022-07-29T08:47:01;99438.50;;;22.71;70.95
49342;BME280;35210;41.606;-87.602;2022-07-29T08:49:29;99436.38;;;22.66;71.39
49342;BME280;35210;41.606;-87.602;2022-07-29T08:51:58;99440.50;;;22.62;71.80
49342;BME280;35210;41.606;-87.602;2022-07-29T08:54:29;99445.25;;;22.60;71.98
49342;BME280;35210;41.606;-87.602;2022-07-29T08:56:59;99446.66;;;22.56;72.06
49342;BME280;35210;41.606;-87.602;2022-07-29T08:59:30;99449.75;;;22.53;72.28
49342;BME280;35210;41.606;-87.602;2022-07-29T09:02:01;99446.41;;;22.51;72.27
49342;BME280;35210;41.606;-87.602;2022-07-29T09:04:34;99450.31;;;22.48;72.10
49342;BME280;35210;41.606;-87.602;2022-07-29T09:07:04;99455.25;;;22.45;72.18
49342;BME280;35210;41.606;-87.602;2022-07-29T09:09:35;99443.66;;;22.44;71.72
49342;BME280;35210;41.606;-87.602;2022-07-29T09:12:06;99444.88;;;22.42;71.98
49342;BME280;35210;41.606;-87.602;2022-07-29T09:14:34;99440.91;;;22.38;71.94
49342;BME280;35210;41.606;-87.602;2022-07-29T09:17:02;99443.59;;;22.38;72.04
49342;BME280;35210;41.606;-87.602;2022-07-29T09:19:33;99441.94;;;22.37;71.97
49342;BME280;35210;41.606;-87.602;2022-07-29T09:22:04;99445.47;;;22.37;71.86
49342;BME280;35210;41.606;-87.602;2022-07-29T09:24:42;99445.84;;;22.34;71.88
49342;BME280;35210;41.606;-87.602;2022-07-29T09:27:18;99448.09;;;22.30;71.81
49342;BME280;35210;41.606;-87.602;2022-07-29T09:29:48;99447.69;;;22.27;72.21
49342;BME280;35210;41.606;-87.602;2022-07-29T09:32:23;99451.41;;;22.26;72.30
49342;BME280;35210;41.606;-87.602;2022-07-29T09:35:16;99458.81;;;22.24;72.46
49342;BME280;35210;41.606;-87.602;2022-07-29T09:37:45;99458.38;;;22.20;72.45
49342;BME280;35210;41.606;-87.602;2022-07-29T09:40:17;99467.47;;;22.19;72.32
49342;BME280;35210;41.606;-87.602;2022-07-29T09:42:46;99460.41;;;22.18;72.24
49342;BME280;35210;41.606;-87.602;2022-07-29T09:45:27;99458.94;;;22.16;72.35
49342;BME280;35210;41.606;-87.602;2022-07-29T09:47:55;99472.59;;;22.14;72.30
49342;BME280;35210;41.606;-87.602;2022-07-29T09:50:37;99477.31;;;22.12;72.30
49342;BME280;35210;41.606;-87.602;2022-07-29T09:53:06;99472.31;;;22.09;72.34
49342;BME280;35210;41.606;-87.602;2022-07-29T09:55:48;99469.00;;;22.07;72.12
49342;BME280;35210;41.606;-87.602;2022-07-29T09:58:17;99469.00;;;22.07;72.08
49342;BME280;35210;41.606;-87.602;2022-07-29T10:00:46;99472.91;;;22.05;72.27
49342;BME280;35210;41.606;-87.602;2022-07-29T10:03:15;99472.25;;;22.03;72.48
49342;BME280;35210;41.606;-87.602;2022-07-29T10:05:45;99468.06;;;22.00;72.66
49342;BME280;35210;41.606;-87.602;2022-07-29T10:08:13;99462.22;;;21.96;72.67
49342;BME280;35210;41.606;-87.602;2022-07-29T10:10:42;99463.06;;;22.40;71.05
49342;BME280;35210;41.606;-87.602;2022-07-29T10:13:13;99472.94;;;22.33;71.19
49342;BME280;35210;41.606;-87.602;2022-07-29T10:15:44;99466.28;;;22.28;71.16
49342;BME280;35210;41.606;-87.602;2022-07-29T10:18:14;99466.88;;;22.24;71.26
49342;BME280;35210;41.606;-87.602;2022-07-29T10:20:43;99466.44;;;22.20;71.27
49342;BME280;35210;41.606;-87.602;2022-07-29T10:23:11;99469.91;;;22.14;71.49
49342;BME280;35210;41.606;-87.602;2022-07-29T10:25:39;99465.28;;;22.08;71.70
49342;BME280;35210;41.606;-87.602;2022-07-29T10:28:08;99465.09;;;21.95;72.40
49342;BME280;35210;41.606;-87.602;2022-07-29T10:30:39;99467.06;;;21.86;72.68
49342;BME280;35210;41.606;-87.602;2022-07-29T10:33:21;99454.22;;;21.82;72.50
49342;BME280;35210;41.606;-87.602;2022-07-29T10:36:07;99464.03;;;21.75;73.21
49342;BME280;35210;41.606;-87.602;2022-07-29T10:38:53;99466.09;;;21.73;73.52
49342;BME280;35210;41.606;-87.602;2022-07-29T10:41:39;99468.97;;;21.71;73.57
49342;BME280;35210;41.606;-87.602;2022-07-29T10:44:18;99469.34;;;21.68;73.38
49342;BME280;35210;41.606;-87.602;2022-07-29T10:46:48;99468.06;;;21.64;73.25
49342;BME280;35210;41.606;-87.602;2022-07-29T10:49:17;99470.94;;;21.62;73.50
49342;BME280;35210;41.606;-87.602;2022-07-29T10:52:01;99472.91;;;22.05;72.44
49342;BME280;35210;41.606;-87.602;2022-07-29T10:54:49;99464.72;;;21.98;72.48
49342;BME280;35210;41.606;-87.602;2022-07-29T10:57:20;99472.91;;;21.90;72.87
49342;BME280;35210;41.606;-87.602;2022-07-29T11:00:30;99482.75;;;21.83;73.00
49342;BME280;35210;41.606;-87.602;2022-07-29T11:03:00;99482.22;;;21.73;73.76
49342;BME280;35210;41.606;-87.602;2022-07-29T11:05:29;99494.47;;;21.60;74.47
49342;BME280;35210;41.606;-87.602;2022-07-29T11:08:16;99489.84;;;21.54;74.56
49342;BME280;35210;41.606;-87.602;2022-07-29T11:10:46;99492.28;;;21.49;74.75
49342;BME280;35210;41.606;-87.602;2022-07-29T11:13:45;99490.63;;;21.48;74.64
49342;BME280;35210;41.606;-87.602;2022-07-29T11:16:14;99496.72;;;21.42;74.94
49342;BME280;35210;41.606;-87.602;2022-07-29T11:19:24;99496.81;;;21.34;75.13
49342;BME280;35210;41.606;-87.602;2022-07-29T11:21:52;99496.19;;;21.32;75.08
49342;BME280;35210;41.606;-87.602;2022-07-29T11:24:22;99502.75;;;21.29;75.41
49342;BME280;35210;41.606;-87.602;2022-07-29T11:27:10;99508.31;;;21.28;75.45
49342;BME280;35210;41.606;-87.602;2022-07-29T11:29:40;99521.75;;;21.28;75.51
49342;BME280;35210;41.606;-87.602;2022-07-29T11:32:17;99509.34;;;21.27;75.55
49342;BME280;35210;41.606;-87.602;2022-07-29T11:34:47;99506.66;;;21.27;75.37
49342;BME280;35210;41.606;-87.602;2022-07-29T11:37:23;99509.16;;;21.28;75.89
49342;BME280;35210;41.606;-87.602;2022-07-29T11:40:25;99520.72;;;21.29;75.73
49342;BME280;35210;41.606;-87.602;2022-07-29T11:42:54;99523.41;;;21.29;75.32
49342;BME280;35210;41.606;-87.602;2022-07-29T11:45:25;99527.13;;;21.28;75.57
49342;BME280;35210;41.606;-87.602;2022-07-29T11:47:59;99534.34;;;21.27;75.61
49342;BME280;35210;41.606;-87.602;2022-07-29T11:50:32;99531.47;;;21.29;74.94
49342;BME280;35210;41.606;-87.602;2022-07-29T11:53:02;99533.13;;;21.30;74.88
49342;BME280;35210;41.606;-87.602;2022-07-29T11:55:30;99537.44;;;21.75;73.38
49342;BME280;35210;41.606;-87.602;2022-07-29T11:58:02;99544.31;;;21.78;73.06
49342;BME280;35210;41.606;-87.602;2022-07-29T12:00:31;99542.44;;;21.78;73.23
49342;BME280;35210;41.606;-87.602;2022-07-29T12:03:02;99545.31;;;21.77;73.12
49342;BME280;35210;41.606;-87.602;2022-07-29T12:05:35;99549.03;;;21.76;73.44
49342;BME280;35210;41.606;-87.602;2022-07-29T12:08:11;99546.53;;;21.74;73.61
49342;BME280;35210;41.606;-87.602;2022-07-29T12:10:40;99553.38;;;21.77;72.84
49342;BME280;35210;41.606;-87.602;2022-07-29T12:13:10;99560.44;;;21.78;72.40
49342;BME280;35210;41.606;-87.602;2022-07-29T12:15:39;99562.56;;;21.82;71.93
49342;BME280;35210;41.606;-87.602;2022-07-29T12:18:11;99552.56;;;21.76;71.75
49342;BME280;35210;41.606;-87.602;2022-07-29T12:20:42;99557.28;;;21.74;72.13
49342;BME280;35210;41.606;-87.602;2022-07-29T12:23:10;99554.13;;;21.71;72.88
49342;BME280;35210;41.606;-87.602;2022-07-29T12:25:43;99557.84;;;21.70;72.68
49342;BME280;35210;41.606;-87.602;2022-07-29T12:28:13;99556.25;;;21.75;73.30
49342;BME280;35210;41.606;-87.602;2022-07-29T12:30:45;99562.38;;;21.84;72.73
49342;BME280;35210;41.606;-87.602;2022-07-29T12:33:20;99559.59;;;21.92;73.50
49342;BME280;35210;41.606;-87.602;2022-07-29T12:35:53;99560.31;;;22.01;72.13
49342;BME280;35210;41.606;-87.602;2022-07-29T12:38:22;99557.34;;;22.10;71.31
49342;BME280;35210;41.606;-87.602;2022-07-29T12:40:52;99562.16;;;22.15;71.10
49342;BME280;35210;41.606;-87.602;2022-07-29T12:43:21;99569.75;;;22.26;71.27
49342;BME280;35210;41.606;-87.602;2022-07-29T12:45:51;99566.06;;;22.34;69.48
49342;BME280;35210;41.606;-87.602;2022-07-29T12:48:33;99574.47;;;22.45;69.05
49342;BME280;35210;41.606;-87.602;2022-07-29T12:51:04;99582.44;;;22.53;69.38
49342;BME280;35210;41.606;-87.602;2022-07-29T12:53:35;99571.75;;;22.60;68.94
49342;BME280;35210;41.606;-87.602;2022-07-29T12:56:04;99576.34;;;22.66;68.77
49342;BME280;35210;41.606;-87.602;2022-07-29T12:58:34;99581.06;;;22.79;67.42
49342;BME280;35210;41.606;-87.602;2022-07-29T13:01:08;99581.38;;;22.90;67.35
49342;BME280;35210;41.606;-87.602;2022-07-29T13:03:45;99584.72;;;22.92;67.86